createdAt,value
2018-12-17T00:01:47.968Z,2.30
2018-12-17T00:04:29.230Z,2.40
2018-12-17T00:07:22.061Z,2.40
2018-12-17T00:09:56.400Z,2.30
2018-12-17T00:12:40.791Z,2.30
2018-12-17T00:15:25.429Z,2.30
2018-12-17T00:17:56.977Z,2.30
2018-12-17T00:20:29.560Z,2.30
2018-12-17T00:23:03.014Z,2.30
2018-12-17T00:25:37.790Z,2.40
2018-12-17T00:28:16.529Z,2.30
2018-12-17T00:30:56.416Z,2.40
2018-12-17T00:33:32.733Z,2.40
2018-12-17T00:36:12.948Z,2.40
2018-12-17T00:38:48.701Z,2.40
2018-12-17T00:41:22.650Z,2.40
2018-12-17T00:44:00.301Z,2.40
2018-12-17T00:46:51.144Z,2.40
2018-12-17T00:49:34.772Z,2.40
2018-12-17T00:52:18.484Z,2.40
2018-12-17T00:54:49.121Z,2.40
2018-12-17T00:57:21.212Z,2.40
2018-12-17T00:59:54.307Z,2.40
2018-12-17T01:02:35.659Z,2.40
2018-12-17T01:05:21.869Z,2.40
2018-12-17T01:07:54.659Z,2.40
2018-12-17T01:10:28.631Z,2.40
2018-12-17T01:13:00.849Z,2.40
2018-12-17T01:15:34.142Z,2.40
2018-12-17T01:18:07.830Z,2.40
2018-12-17T01:20:43.642Z,2.50
2018-12-17T01:23:19.303Z,2.40
2018-12-17T01:25:55.677Z,2.50
2018-12-17T01:28:29.288Z,2.50
2018-12-17T01:31:03.733Z,2.50
2018-12-17T01:36:57.713Z,2.50
2018-12-17T01:39:29.348Z,2.50
2018-12-17T01:42:05.201Z,2.50
2018-12-17T01:44:36.238Z,2.50
2018-12-17T01:47:06.808Z,2.50
2018-12-17T01:49:36.839Z,2.50
2018-12-17T01:52:08.940Z,2.50
2018-12-17T01:54:38.867Z,2.50
2018-12-17T01:57:09.770Z,2.50
2018-12-17T01:59:41.557Z,2.60
2018-12-17T02:02:11.513Z,2.60
2018-12-17T02:04:42.526Z,2.60
2018-12-17T02:07:15.329Z,2.60
2018-12-17T02:09:46.886Z,2.60
2018-12-17T02:12:16.916Z,2.50
2018-12-17T02:14:46.874Z,2.60
2018-12-17T02:17:31.457Z,2.60
2018-12-17T02:20:03.228Z,2.60
2018-12-17T02:22:34.340Z,2.60
2018-12-17T02:25:07.618Z,2.60
2018-12-17T02:27:39.353Z,2.60
2018-12-17T02:30:09.902Z,2.60
2018-12-17T02:32:41.481Z,2.60
2018-12-17T02:35:13.874Z,2.60
2018-12-17T02:37:46.798Z,2.50
2018-12-17T02:40:18.248Z,2.50
2018-12-17T02:42:48.283Z,2.50
2018-12-17T02:45:21.373Z,2.40
2018-12-17T02:47:53.556Z,2.40
2018-12-17T02:50:24.323Z,2.40
2018-12-17T02:52:54.977Z,2.30
2018-12-17T02:58:06.104Z,2.30
2018-12-17T03:00:35.779Z,2.40
2018-12-17T03:03:05.711Z,2.40
2018-12-17T03:05:37.114Z,2.40
2018-12-17T03:08:13.858Z,2.50
2018-12-17T03:10:51.822Z,2.50
2018-12-17T03:13:22.130Z,2.50
2018-12-17T03:15:54.507Z,2.50
2018-12-17T03:18:25.243Z,2.50
2018-12-17T03:20:56.543Z,2.40
2018-12-17T03:23:28.460Z,2.50
2018-12-17T03:25:58.319Z,2.50
2018-12-17T03:28:28.990Z,2.40
2018-12-17T03:31:00.741Z,2.40
2018-12-17T03:33:35.163Z,2.50
2018-12-17T03:36:04.994Z,2.50
2018-12-17T03:38:38.278Z,2.50
2018-12-17T03:41:08.316Z,2.50
2018-12-17T03:43:39.677Z,2.50
2018-12-17T03:46:12.885Z,2.50
2018-12-17T03:48:42.732Z,2.50
2018-12-17T03:51:15.883Z,2.50
2018-12-17T03:53:47.005Z,2.50
2018-12-17T03:56:16.687Z,2.50
2018-12-17T03:58:46.354Z,2.70
2018-12-17T04:01:16.208Z,2.50
2018-12-17T04:03:46.063Z,2.60
2018-12-17T04:06:15.922Z,2.60
2018-12-17T04:08:45.851Z,2.60
2018-12-17T04:11:16.065Z,2.70
2018-12-17T04:13:45.763Z,2.70
2018-12-17T04:16:15.606Z,2.70
2018-12-17T04:18:45.633Z,2.80
2018-12-17T04:21:15.746Z,2.80
2018-12-17T04:23:46.316Z,2.90
2018-12-17T04:26:18.234Z,2.90
2018-12-17T04:28:48.259Z,2.90
2018-12-17T04:31:18.044Z,3.00
2018-12-17T04:33:49.584Z,3.00
2018-12-17T04:36:19.436Z,3.00
2018-12-17T04:38:50.695Z,3.00
2018-12-17T04:41:21.189Z,3.00
2018-12-17T04:43:51.106Z,3.10
2018-12-17T04:46:21.016Z,3.10
2018-12-17T04:48:50.710Z,3.10
2018-12-17T04:51:20.470Z,3.10
2018-12-17T04:53:50.223Z,3.20
2018-12-17T04:56:27.375Z,3.20
2018-12-17T04:58:57.049Z,3.30
2018-12-17T05:01:26.622Z,3.30
2018-12-17T05:03:56.369Z,3.40
2018-12-17T05:06:26.122Z,3.50
2018-12-17T05:08:56.199Z,3.50
2018-12-17T05:11:26.206Z,3.60
2018-12-17T05:13:57.136Z,3.60
2018-12-17T05:16:27.172Z,3.60
2018-12-17T05:18:59.111Z,3.70
2018-12-17T05:21:29.220Z,3.70
2018-12-17T05:24:00.584Z,3.60
2018-12-17T05:26:31.968Z,3.80
2018-12-17T05:29:01.637Z,3.80
2018-12-17T05:31:31.426Z,3.90
2018-12-17T05:34:01.431Z,3.90
2018-12-17T05:36:31.472Z,3.90
2018-12-17T05:39:01.322Z,3.90
2018-12-17T05:41:31.168Z,4.00
2018-12-17T05:44:01.106Z,4.00
2018-12-17T05:46:30.725Z,4.00
2018-12-17T05:49:03.397Z,4.00
2018-12-17T05:51:33.396Z,4.00
2018-12-17T05:54:03.586Z,4.00
2018-12-17T05:56:33.354Z,4.00
2018-12-17T05:59:04.018Z,4.10
2018-12-17T06:01:33.698Z,4.10
2018-12-17T06:04:03.337Z,4.20
2018-12-17T06:06:33.482Z,4.20
2018-12-17T06:09:03.341Z,4.20
2018-12-17T06:11:33.209Z,4.30
2018-12-17T06:14:03.340Z,4.20
2018-12-17T06:16:33.282Z,4.20
2018-12-17T06:19:03.445Z,4.10
2018-12-17T06:21:34.961Z,4.10
2018-12-17T06:24:06.977Z,4.10
2018-12-17T06:26:43.797Z,4.10
2018-12-17T06:29:23.131Z,4.10
2018-12-17T06:32:07.616Z,4.10
2018-12-17T06:34:39.097Z,4.10
2018-12-17T06:37:09.392Z,4.00
2018-12-17T06:39:39.770Z,4.00
2018-12-17T06:42:09.723Z,4.00
2018-12-17T06:44:39.758Z,4.00
2018-12-17T06:47:09.776Z,4.00
2018-12-17T06:49:40.867Z,4.10
2018-12-17T06:52:10.738Z,4.00
2018-12-17T06:54:41.370Z,4.00
2018-12-17T06:57:12.004Z,4.10
2018-12-17T06:59:42.805Z,4.10
2018-12-17T07:02:15.540Z,4.10
2018-12-17T07:04:46.664Z,4.00
2018-12-17T07:07:17.569Z,4.10
2018-12-17T07:09:47.519Z,4.10
2018-12-17T07:12:18.079Z,4.10
2018-12-17T07:14:50.959Z,4.10
2018-12-17T07:17:21.000Z,4.10
2018-12-17T07:19:51.315Z,4.10
2018-12-17T07:22:21.522Z,4.20
2018-12-17T07:25:42.336Z,4.20
2018-12-17T07:28:12.562Z,4.20
2018-12-17T07:30:42.461Z,4.20
2018-12-17T07:33:13.826Z,4.20
2018-12-17T07:35:45.232Z,4.20
2018-12-17T07:38:17.932Z,4.30
2018-12-17T07:40:49.675Z,4.30
2018-12-17T07:43:22.248Z,4.30
2018-12-17T07:45:52.848Z,4.30
2018-12-17T07:48:24.048Z,4.40
2018-12-17T07:50:54.709Z,4.40
2018-12-17T07:53:24.461Z,4.40
2018-12-17T07:55:57.641Z,4.50
2018-12-17T07:58:27.935Z,4.50
2018-12-17T08:00:57.997Z,4.50
2018-12-17T08:03:28.685Z,4.60
2018-12-17T08:05:58.798Z,4.60
2018-12-17T08:08:35.152Z,4.60
2018-12-17T08:11:00.407Z,4.60
2018-12-17T08:13:30.116Z,4.60
2018-12-17T08:16:00.136Z,4.70
2018-12-17T08:18:29.729Z,4.70
2018-12-17T08:20:59.296Z,4.80
2018-12-17T08:23:30.679Z,4.80
2018-12-17T08:26:01.027Z,4.80
2018-12-17T08:28:32.460Z,4.80
2018-12-17T08:31:02.924Z,4.80
2018-12-17T08:33:34.251Z,4.90
2018-12-17T08:36:08.475Z,4.90
2018-12-17T08:38:39.511Z,4.90
2018-12-17T08:41:11.449Z,4.90
2018-12-17T08:43:41.193Z,5.00
2018-12-17T08:46:11.056Z,5.00
2018-12-17T08:48:41.637Z,5.00
2018-12-17T08:51:12.064Z,5.10
2018-12-17T08:53:46.299Z,5.10
2018-12-17T08:56:17.303Z,5.20
2018-12-17T08:58:47.188Z,5.20
2018-12-17T09:01:17.284Z,5.20
2018-12-17T09:03:47.432Z,5.20
2018-12-17T09:06:18.400Z,5.30
2018-12-17T09:08:49.009Z,5.40
2018-12-17T09:11:18.741Z,5.40
2018-12-17T09:13:48.651Z,5.40
2018-12-17T09:16:20.180Z,5.50
2018-12-17T09:18:51.943Z,5.50
2018-12-17T09:21:22.311Z,5.50
2018-12-17T09:23:52.951Z,5.50
2018-12-17T09:26:23.429Z,5.50
2018-12-17T09:28:54.061Z,5.40
2018-12-17T09:31:23.978Z,5.50
2018-12-17T09:33:54.019Z,5.40
2018-12-17T09:36:24.879Z,5.40
2018-12-17T09:38:54.504Z,5.40
2018-12-17T09:41:24.736Z,5.50
2018-12-17T09:43:56.017Z,5.50
2018-12-17T09:46:26.733Z,5.60
2018-12-17T09:48:57.136Z,5.60
2018-12-17T09:51:28.915Z,5.60
2018-12-17T09:53:59.261Z,5.70
2018-12-17T09:56:29.143Z,5.70
2018-12-17T09:58:59.927Z,5.80
2018-12-17T10:01:30.667Z,6.00
2018-12-17T10:04:00.952Z,6.00
2018-12-17T10:06:33.435Z,6.00
2018-12-17T10:09:11.541Z,6.00
2018-12-17T10:11:49.417Z,6.00
2018-12-17T10:14:19.996Z,6.10
2018-12-17T10:16:50.705Z,6.10
2018-12-17T10:19:27.404Z,6.10
2018-12-17T10:22:03.813Z,6.30
2018-12-17T10:24:33.761Z,6.40
2018-12-17T10:27:13.239Z,6.50
2018-12-17T10:29:53.575Z,6.60
2018-12-17T10:32:40.350Z,6.60
2018-12-17T10:35:10.468Z,6.60
2018-12-17T10:37:42.420Z,6.70
2018-12-17T10:40:24.321Z,6.70
2018-12-17T10:43:13.030Z,6.80
2018-12-17T10:45:45.792Z,6.80
2018-12-17T10:48:16.786Z,6.80
2018-12-17T10:50:46.620Z,6.80
2018-12-17T10:53:16.735Z,6.90
2018-12-17T10:55:47.255Z,7.10
2018-12-17T10:58:19.220Z,7.30
2018-12-17T11:00:59.892Z,7.40
2018-12-17T11:04:10.966Z,7.40
2018-12-17T11:06:41.381Z,7.50
2018-12-17T11:09:11.216Z,7.70
2018-12-17T11:11:41.043Z,7.70
2018-12-17T11:14:13.914Z,7.70
2018-12-17T11:16:45.007Z,7.80
2018-12-17T11:19:15.693Z,7.90
2018-12-17T11:21:46.489Z,7.90
2018-12-17T11:24:46.827Z,7.70
2018-12-17T11:27:19.844Z,7.70
2018-12-17T11:30:19.111Z,7.80
2018-12-17T11:32:56.042Z,8.00
2018-12-17T11:35:29.627Z,8.20
2018-12-17T11:38:06.244Z,8.20
2018-12-17T11:40:40.554Z,8.20
2018-12-17T11:43:11.502Z,8.20
2018-12-17T11:46:06.491Z,8.30
2018-12-17T11:48:41.700Z,8.40
2018-12-17T11:52:23.849Z,8.50
2018-12-17T11:54:58.451Z,8.40
2018-12-17T11:58:34.289Z,8.40
2018-12-17T12:01:06.095Z,8.50
2018-12-17T12:03:38.833Z,8.50
2018-12-17T12:06:13.955Z,8.40
2018-12-17T12:08:41.085Z,8.40
2018-12-17T12:11:12.103Z,8.30
2018-12-17T12:13:43.463Z,8.40
2018-12-17T12:16:13.624Z,8.30
2018-12-17T12:18:54.098Z,8.20
2018-12-17T12:21:35.870Z,8.10
2018-12-17T12:24:05.901Z,8.20
2018-12-17T12:26:40.088Z,8.20
2018-12-17T12:29:13.584Z,8.30
2018-12-17T12:31:43.593Z,8.20
2018-12-17T12:34:14.633Z,8.20
2018-12-17T12:36:44.514Z,8.20
2018-12-17T12:39:16.904Z,8.30
2018-12-17T12:41:50.555Z,8.30
2018-12-17T12:44:21.770Z,8.40
2018-12-17T12:46:51.954Z,8.40
2018-12-17T12:49:22.408Z,8.50
2018-12-17T12:51:58.294Z,8.60
2018-12-17T12:54:29.036Z,8.80
2018-12-17T12:57:00.683Z,9.00
2018-12-17T12:59:35.670Z,9.10
2018-12-17T13:02:06.834Z,9.10
2018-12-17T13:04:36.831Z,9.10
2018-12-17T13:07:09.830Z,9.00
2018-12-17T13:09:39.474Z,9.00
2018-12-17T13:12:09.497Z,8.90
2018-12-17T13:14:41.187Z,8.90
2018-12-17T13:17:17.245Z,8.80
2018-12-17T13:19:47.779Z,8.80
2018-12-17T13:22:18.927Z,8.70
2018-12-17T13:24:49.231Z,8.70
2018-12-17T13:27:19.342Z,8.70
2018-12-17T13:29:49.882Z,8.70
2018-12-17T13:32:22.345Z,8.70
2018-12-17T13:34:54.822Z,8.70
2018-12-17T13:37:26.521Z,8.60
2018-12-17T13:39:58.409Z,8.60
2018-12-17T13:42:43.303Z,8.60
2018-12-17T13:45:26.378Z,8.60
2018-12-17T13:47:56.663Z,8.60
2018-12-17T13:50:31.804Z,8.60
2018-12-17T13:53:06.429Z,8.60
2018-12-17T13:55:39.204Z,8.60
2018-12-17T13:58:09.766Z,8.60
2018-12-17T14:00:41.103Z,8.60
2018-12-17T14:03:13.735Z,8.60
2018-12-17T14:05:45.277Z,8.60
2018-12-17T14:08:18.585Z,8.60
2018-12-17T14:10:54.945Z,8.60
2018-12-17T14:13:32.703Z,8.70
2018-12-17T14:16:11.484Z,8.70
2018-12-17T14:18:47.065Z,8.80
2018-12-17T14:21:27.210Z,8.80
2018-12-17T14:23:56.919Z,8.90
2018-12-17T14:26:27.249Z,8.90
2018-12-17T14:28:58.365Z,8.90
2018-12-17T14:31:28.902Z,8.90
2018-12-17T14:34:00.397Z,8.80
2018-12-17T14:36:29.995Z,8.80
2018-12-17T14:38:59.703Z,8.80
2018-12-17T14:41:30.344Z,8.70
2018-12-17T14:44:06.116Z,8.70
2018-12-17T14:46:39.885Z,8.70
2018-12-17T14:49:20.839Z,8.70
2018-12-17T14:51:51.387Z,8.80
2018-12-17T14:54:23.802Z,8.80
2018-12-17T14:56:54.301Z,8.80
2018-12-17T14:59:45.249Z,8.70
2018-12-17T15:02:23.169Z,8.70
2018-12-17T15:04:53.817Z,8.80
2018-12-17T15:07:24.724Z,8.80
2018-12-17T15:09:56.058Z,8.80
2018-12-17T15:12:26.954Z,8.80
2018-12-17T15:14:57.173Z,8.80
2018-12-17T15:17:27.556Z,8.80
2018-12-17T15:19:57.642Z,8.80
2018-12-17T15:22:30.109Z,8.80
2018-12-17T15:25:00.669Z,8.80
2018-12-17T15:27:32.679Z,8.70
2018-12-17T15:30:03.673Z,8.80
2018-12-17T15:32:33.939Z,8.80
2018-12-17T15:35:06.164Z,8.80
2018-12-17T15:37:36.617Z,8.80
2018-12-17T15:40:07.982Z,8.70
2018-12-17T15:42:40.901Z,8.70
2018-12-17T15:45:14.951Z,8.60
2018-12-17T15:47:50.165Z,8.70
2018-12-17T15:50:29.676Z,8.70
2018-12-17T15:53:03.719Z,8.70
2018-12-17T15:55:34.085Z,8.70
2018-12-17T15:58:07.420Z,8.70
2018-12-17T16:00:37.905Z,8.70
2018-12-17T16:03:10.166Z,8.90
2018-12-17T16:05:51.563Z,8.70
2018-12-17T16:08:25.110Z,8.70
2018-12-17T16:11:01.464Z,8.80
2018-12-17T16:13:40.829Z,8.80
2018-12-17T16:16:13.681Z,8.90
2018-12-17T16:18:47.353Z,8.80
2018-12-17T16:21:20.356Z,8.80
2018-12-17T16:23:53.274Z,8.80
2018-12-17T16:26:26.512Z,8.80
2018-12-17T16:29:02.984Z,8.80
2018-12-17T16:31:33.517Z,8.90
2018-12-17T16:34:04.544Z,9.00
2018-12-17T16:36:34.960Z,9.20
2018-12-17T16:39:06.780Z,9.20
2018-12-17T16:41:37.414Z,9.20
2018-12-17T16:44:12.295Z,9.20
2018-12-17T16:46:42.749Z,9.10
2018-12-17T16:49:19.336Z,9.10
2018-12-17T16:51:51.821Z,8.90
2018-12-17T16:54:23.924Z,8.90
2018-12-17T16:56:55.849Z,8.90
2018-12-17T16:59:33.363Z,8.90
2018-12-17T17:02:05.789Z,8.90
2018-12-17T17:04:36.339Z,8.90
2018-12-17T17:07:08.789Z,8.80
2018-12-17T17:09:40.610Z,8.80
2018-12-17T17:12:12.200Z,8.70
2018-12-17T17:14:43.584Z,8.60
2018-12-17T17:17:14.292Z,8.70
2018-12-17T17:19:50.806Z,8.60
2018-12-17T17:22:18.972Z,8.60
2018-12-17T17:25:00.876Z,8.60
2018-12-17T17:27:31.239Z,8.60
2018-12-17T17:30:14.773Z,8.60
2018-12-17T17:32:48.660Z,8.50
2018-12-17T17:35:19.540Z,8.50
2018-12-17T17:37:53.463Z,8.50
2018-12-17T17:40:25.539Z,8.50
2018-12-17T17:42:56.707Z,8.50
2018-12-17T17:45:27.157Z,8.40
2018-12-17T17:47:58.866Z,8.40
2018-12-17T17:50:30.157Z,8.50
2018-12-17T17:53:02.352Z,8.50
2018-12-17T17:55:33.842Z,8.50
2018-12-17T17:58:15.724Z,8.50
2018-12-17T18:00:48.366Z,8.50
2018-12-17T18:03:22.211Z,8.40
2018-12-17T18:05:56.673Z,8.40
2018-12-17T18:08:29.453Z,8.30
2018-12-17T18:11:00.943Z,8.20
2018-12-17T18:13:31.291Z,8.20
2018-12-17T18:16:06.266Z,8.20
2018-12-17T18:18:36.210Z,8.10
2018-12-17T18:21:16.392Z,8.20
2018-12-17T18:23:47.773Z,8.10
2018-12-17T18:26:20.576Z,8.10
2018-12-17T18:28:51.828Z,8.10
2018-12-17T18:31:22.642Z,8.00
2018-12-17T18:33:53.677Z,8.10
2018-12-17T18:36:28.993Z,8.10
2018-12-17T18:39:02.456Z,8.10
2018-12-17T18:41:36.423Z,8.20
2018-12-17T18:44:08.061Z,8.20
2018-12-17T18:46:53.829Z,8.40
2018-12-17T18:49:25.281Z,8.30
2018-12-17T18:52:00.093Z,8.20
2018-12-17T18:54:33.530Z,8.20
2018-12-17T18:57:04.258Z,8.30
2018-12-17T18:59:34.040Z,8.40
2018-12-17T19:02:04.504Z,8.50
2018-12-17T19:04:36.447Z,8.60
2018-12-17T19:07:11.751Z,8.70
2018-12-17T19:09:42.338Z,8.80
2018-12-17T19:12:16.221Z,8.80
2018-12-17T19:15:00.650Z,8.70
2018-12-17T19:17:49.308Z,8.60
2018-12-17T19:20:31.397Z,8.50
2018-12-17T19:23:28.953Z,8.40
2018-12-17T19:26:18.772Z,8.40
2018-12-17T19:29:17.654Z,8.30
2018-12-17T19:31:57.497Z,8.30
2018-12-17T19:34:38.400Z,8.30
2018-12-17T19:37:40.594Z,8.40
2018-12-17T19:40:13.701Z,8.40
2018-12-17T19:42:48.188Z,8.20
2018-12-17T19:45:27.942Z,8.20
2018-12-17T19:48:20.613Z,8.20
2018-12-17T19:50:58.485Z,8.30
2018-12-17T19:53:34.828Z,8.30
2018-12-17T19:56:12.670Z,8.30
2018-12-17T19:58:43.451Z,8.20
2018-12-17T20:01:16.074Z,8.20
2018-12-17T20:03:57.920Z,8.10
2018-12-17T20:06:29.523Z,8.20
2018-12-17T20:09:22.077Z,8.10
2018-12-17T20:11:55.173Z,8.10
2018-12-17T20:14:27.571Z,8.00
2018-12-17T20:16:58.686Z,8.00
2018-12-17T20:20:01.525Z,7.90
2018-12-17T20:22:56.334Z,7.80
2018-12-17T20:25:57.745Z,7.80
2018-12-17T20:28:44.902Z,7.60
2018-12-17T20:31:19.715Z,7.60
2018-12-17T20:34:05.833Z,7.60
2018-12-17T20:36:37.424Z,7.50
2018-12-17T20:39:09.990Z,7.60
2018-12-17T20:41:39.862Z,7.50
2018-12-17T20:44:11.132Z,7.40
2018-12-17T20:46:43.736Z,7.40
2018-12-17T20:49:14.577Z,7.40
2018-12-17T20:51:50.666Z,7.50
2018-12-17T20:54:32.309Z,7.50
2018-12-17T20:57:09.273Z,7.50
2018-12-17T20:59:40.513Z,7.50
2018-12-17T21:02:10.220Z,7.50
2018-12-17T21:04:41.817Z,7.50
2018-12-17T21:07:18.477Z,7.40
2018-12-17T21:10:05.556Z,7.30
2018-12-17T21:12:48.909Z,7.30
2018-12-17T21:15:21.812Z,7.20
2018-12-17T21:17:55.772Z,7.20
2018-12-17T21:20:27.071Z,7.10
2018-12-17T21:23:00.044Z,7.20
2018-12-17T21:25:30.923Z,7.20
2018-12-17T21:28:02.385Z,7.20
2018-12-17T21:30:49.451Z,7.10
2018-12-17T21:33:33.894Z,7.00
2018-12-17T21:36:04.923Z,7.00
2018-12-17T21:38:36.983Z,7.00
2018-12-17T21:41:06.974Z,6.90
2018-12-17T21:43:37.891Z,6.90
2018-12-17T21:46:08.100Z,6.80
2018-12-17T21:48:38.534Z,6.80
2018-12-17T21:51:11.821Z,6.80
2018-12-17T21:53:45.874Z,6.70
2018-12-17T21:56:16.724Z,6.80
2018-12-17T21:58:47.681Z,6.90
2018-12-17T22:01:17.970Z,6.90
2018-12-17T22:04:06.305Z,6.80
2018-12-17T22:06:52.102Z,6.70
2018-12-17T22:09:38.725Z,6.70
2018-12-17T22:12:08.841Z,6.70
2018-12-17T22:14:38.571Z,6.60
2018-12-17T22:17:10.333Z,6.70
2018-12-17T22:19:42.621Z,6.70
2018-12-17T22:22:14.835Z,6.80
2018-12-17T22:24:44.660Z,6.70
2018-12-17T22:27:22.892Z,6.60
2018-12-17T22:29:53.113Z,6.40
2018-12-17T22:32:25.893Z,6.30
2018-12-17T22:34:56.890Z,6.10
2018-12-17T22:37:37.980Z,6.00
2018-12-17T22:40:13.111Z,6.00
2018-12-17T22:42:44.075Z,6.00
2018-12-17T22:45:21.184Z,5.90
2018-12-17T22:47:54.490Z,5.80
2018-12-17T22:50:26.094Z,5.70
2018-12-17T22:52:56.842Z,5.60
2018-12-17T22:55:27.918Z,5.60
2018-12-17T22:58:00.731Z,5.60
2018-12-17T23:00:34.293Z,5.50
2018-12-17T23:03:06.507Z,5.50
2018-12-17T23:05:39.006Z,5.50
2018-12-17T23:08:11.299Z,5.50
2018-12-17T23:10:53.646Z,5.50
2018-12-17T23:13:36.495Z,5.50
2018-12-17T23:16:18.480Z,5.60
2018-12-17T23:18:48.024Z,5.60
2018-12-17T23:21:21.749Z,5.60
2018-12-17T23:23:55.964Z,5.60
2018-12-17T23:26:27.071Z,5.60
2018-12-17T23:29:08.690Z,5.60
2018-12-17T23:31:44.470Z,5.60
2018-12-17T23:34:14.424Z,5.60
2018-12-17T23:36:45.026Z,5.60
2018-12-17T23:39:17.339Z,5.70
2018-12-17T23:41:47.810Z,5.70
2018-12-17T23:44:17.619Z,5.80
2018-12-17T23:46:49.375Z,5.80
2018-12-17T23:49:19.292Z,5.90
2018-12-17T23:51:57.617Z,5.90
2018-12-17T23:54:27.663Z,5.90
2018-12-17T23:56:57.810Z,5.90
2018-12-17T23:59:28.807Z,5.90
